Portada
METAR-TAF:

METAR-TAF

Aeropuertos :

Aeropuerto de Limoges

Limoges, Francia

latitud: 45-52N, longitud: 001-11E, altitud: 396 m

Observación

El informe se hizo hace 37 minutos, a las 08:30 UTC
Viento 7 kt del este-sureste
Temperatura 7°C
Humedad 66%
Presión 1020 hPa
Visibilidad 10 km o más
sin nubes por debajo de 1500 m y sin presencia de cumulonimbus.

METAR: LFBL 180830Z AUTO 12007KT CAVOK 07/01 Q1020 NOSIG

Hora: 10:07 (09:07 UTC)

Pronóstico

El informe se hizo hace 4 horas y 7 minutos, a las 05:00 UTC
Pronóstico válido del 18 a las 06 UTC al 19 a las 06 UTC
Viento 8 kt del sur-sureste
Visibilidad 10 km o más
sin nubes por debajo de 1500 m y sin presencia de cumulonimbus.
Evolucionando progresivamente
del 19 a las 01 UTC al 19 a las 03 UTC
Cielo nuboso a una altura de 1300 ft

TAF: LFBL 180500Z 1806/1906 16008KT CAVOK BECMG 1901/1903 BKN013

Observaciones y pronósticos meteorológicos de más de 4000 aeropuertos (mensajes METAR y TAF).

Los puntos amarillos y rojos representan las estaciones disponibles.

Ponga el ratón en el punto deseado para ver el nombre de la estación.

Haga clic para ver las observaciones y los pronósticos meteorológicos.

Para cambiar el mapa : haga clic en los botones verdes con una cruz de color negro para hacer un zoom, en el botón verde con un guión para alejar o en las flechas verdes para mapas adyacentes.


METAR-TAF: